Time;durP1;ratioP1;P1;durP2;ratioP2;P2;SDS_P1;SDS_P2;PMS_P1;PMS_P2;Temp;Humidity;BMP_temperature;BMP_pressure;BME280_temperature;BME280_humidity;BME280_pressure;Samples;Min_cycle;Max_cycle;Signal;HPM_P1;HPM_P2
2021/03/02 00:01:10;;;;;;;18.13;10.60;;;2.80;92.20;;;;;;5017075;28;20017;-87
2021/03/02 00:03:37;;;;;;;20.52;10.07;;;2.90;92.00;;;;;;5016948;28;20541;-87
2021/03/02 00:06:04;;;;;;;23.40;10.90;;;2.90;92.80;;;;;;5016612;28;20029;-88
2021/03/02 00:08:30;;;;;;;20.23;10.63;;;2.90;93.10;;;;;;5016627;28;20021;-88
2021/03/02 00:10:58;;;;;;;21.30;11.55;;;3.00;91.60;;;;;;5016746;28;20496;-88
2021/03/02 00:13:25;;;;;;;17.15;10.48;;;3.10;92.80;;;;;;5016476;28;20152;-87
2021/03/02 00:15:51;;;;;;;17.52;10.43;;;3.10;93.00;;;;;;5016391;28;20017;-88
2021/03/02 00:18:19;;;;;;;23.25;10.40;;;3.30;93.90;;;;;;5015998;28;20030;-89
2021/03/02 00:20:50;;;;;;;19.73;10.43;;;3.30;94.70;;;;;;5016598;28;20032;-88
2021/03/02 00:23:25;;;;;;;21.30;10.05;;;3.40;94.50;;;;;;5016926;28;20037;-88
2021/03/02 00:25:55;;;;;;;21.63;10.45;;;3.40;95.20;;;;;;5016318;28;20021;-87
2021/03/02 00:28:26;;;;;;;15.35;9.63;;;3.50;95.40;;;;;;5015406;28;20034;-88
2021/03/02 00:30:52;;;;;;;18.75;10.48;;;3.70;95.20;;;;;;5016454;28;20021;-88
2021/03/02 00:33:20;;;;;;;17.17;9.93;;;3.90;93.70;;;;;;5032733;28;20084;-89
2021/03/02 00:35:46;;;;;;;17.25;10.20;;;4.10;92.60;;;;;;5032376;28;20029;-88
2021/03/02 00:38:11;;;;;;;18.25;11.18;;;4.00;91.70;;;;;;5016132;28;20117;-88
2021/03/02 00:40:37;;;;;;;16.58;10.07;;;3.90;90.70;;;;;;5032720;28;20025;-87
2021/03/02 00:43:03;;;;;;;21.52;10.13;;;3.60;90.40;;;;;;5016240;28;20037;-88
2021/03/02 00:45:28;;;;;;;17.10;8.73;;;3.40;91.00;;;;;;5032338;28;20421;-88
2021/03/02 00:47:54;;;;;;;19.35;9.95;;;3.20;91.40;;;;;;5015796;28;20032;-88
2021/03/02 00:50:24;;;;;;;20.73;9.70;;;3.30;91.40;;;;;;5016183;28;20133;-87
2021/03/02 00:52:50;;;;;;;17.25;10.18;;;3.30;91.60;;;;;;5016073;28;20030;-88
2021/03/02 00:55:17;;;;;;;15.90;9.23;;;3.40;91.20;;;;;;5015944;28;20028;-87
2021/03/02 00:57:43;;;;;;;16.30;8.95;;;3.40;90.50;;;;;;5015294;28;20083;-87
2021/03/02 01:00:09;;;;;;;20.10;8.98;;;3.20;89.50;;;;;;5016282;28;20033;-87
2021/03/02 01:02:36;;;;;;;15.15;8.98;;;2.80;88.70;;;;;;5015755;28;20393;-87
2021/03/02 01:05:02;;;;;;;15.40;8.75;;;2.50;90.30;;;;;;5032364;28;20026;-87
2021/03/02 01:07:28;;;;;;;19.00;8.38;;;2.40;90.90;;;;;;5015251;28;20156;-86
2021/03/02 01:09:53;;;;;;;14.68;8.60;;;2.30;91.30;;;;;;5032140;28;20059;-87
2021/03/02 01:12:37;;;;;;;21.10;9.77;;;2.20;92.30;;;;;;5032225;28;20033;-89
2021/03/02 01:15:18;;;;;;;24.67;9.82;;;2.30;92.60;;;;;;5022539;28;20094;-89
2021/03/02 01:17:44;;;;;;;17.63;8.43;;;2.60;93.20;;;;;;5017055;28;20036;-89
2021/03/02 01:20:10;;;;;;;17.33;8.88;;;2.70;93.60;;;;;;5015581;28;20033;-89
2021/03/02 01:22:36;;;;;;;17.75;8.63;;;2.80;92.70;;;;;;5015527;28;20025;-89
2021/03/02 01:25:03;;;;;;;16.52;9.25;;;2.90;93.00;;;;;;5015482;28;20120;-89
2021/03/02 01:27:29;;;;;;;17.40;9.35;;;2.80;91.50;;;;;;5015020;28;20064;-89
2021/03/02 01:29:55;;;;;;;17.90;10.02;;;2.70;92.50;;;;;;5013722;28;20030;-88
2021/03/02 01:32:21;;;;;;;14.38;9.68;;;2.60;92.40;;;;;;5031766;28;20036;-89
2021/03/02 01:34:46;;;;;;;17.15;9.07;;;2.60;92.10;;;;;;5015587;28;20371;-88
2021/03/02 01:37:12;;;;;;;20.23;9.70;;;2.60;92.10;;;;;;5031476;28;20018;-89
2021/03/02 01:39:38;;;;;;;17.15;9.30;;;2.50;92.10;;;;;;5031389;28;20072;-88
2021/03/02 01:42:04;;;;;;;15.55;8.68;;;2.40;91.70;;;;;;5015188;28;20033;-89
2021/03/02 01:44:30;;;;;;;14.27;8.60;;;2.30;92.40;;;;;;5031625;28;20485;-89
2021/03/02 01:46:56;;;;;;;13.82;8.60;;;2.00;91.70;;;;;;5014718;28;20033;-88
2021/03/02 01:49:22;;;;;;;16.17;9.00;;;1.90;91.90;;;;;;5014842;28;20032;-88
2021/03/02 01:51:48;;;;;;;19.30;9.68;;;1.90;93.20;;;;;;5032815;28;20152;-88
2021/03/02 01:54:15;;;;;;;14.63;8.82;;;2.00;93.40;;;;;;5015306;28;20021;-89
2021/03/02 01:56:41;;;;;;;19.13;9.18;;;2.00;92.30;;;;;;5031180;28;20025;-88
2021/03/02 01:59:08;;;;;;;18.27;8.98;;;2.00;93.60;;;;;;5031253;28;20057;-89
2021/03/02 02:01:34;;;;;;;16.45;9.00;;;2.20;94.20;;;;;;5014925;28;20037;-89
2021/03/02 02:04:33;;;;;;;18.65;9.45;;;2.30;93.90;;;;;;5014793;28;20063;-88
2021/03/02 02:07:03;;;;;;;21.48;10.43;;;2.40;95.40;;;;;;5014169;28;20030;-89
2021/03/02 02:09:42;;;;;;;18.30;9.32;;;2.70;95.70;;;;;;5014552;28;20212;-89
2021/03/02 02:12:16;;;;;;;16.48;9.20;;;2.90;94.90;;;;;;5014793;28;20056;-89
2021/03/02 02:14:54;;;;;;;23.73;10.60;;;3.10;93.70;;;;;;5031581;28;20025;-89
2021/03/02 02:17:30;;;;;;;17.17;9.13;;;3.10;94.30;;;;;;5014398;28;20112;-88
2021/03/02 02:20:01;;;;;;;18.42;9.57;;;3.10;94.40;;;;;;5015004;28;20549;-88
2021/03/02 02:22:56;;;;;;;17.57;8.80;;;3.10;93.40;;;;;;5014843;28;20029;-89
2021/03/02 02:25:37;;;;;;;14.63;8.68;;;3.00;92.60;;;;;;4998055;28;20453;-89
2021/03/02 02:28:04;;;;;;;21.75;8.55;;;2.70;92.30;;;;;;5030648;28;20415;-89
2021/03/02 02:30:31;;;;;;;16.40;9.35;;;2.30;93.20;;;;;;5032162;28;20487;-89
2021/03/02 02:32:58;;;;;;;19.75;9.55;;;2.10;95.10;;;;;;5014590;28;20402;-89
2021/03/02 02:35:25;;;;;;;22.67;10.45;;;2.00;99.30;;;;;;5030813;28;20025;-89
2021/03/02 02:37:52;;;;;;;18.63;9.65;;;2.20;99.90;;;;;;5014335;28;20405;-89
2021/03/02 02:40:21;;;;;;;16.20;9.77;;;2.50;99.80;;;;;;5015649;28;20028;-89
2021/03/02 02:42:51;;;;;;;18.50;10.02;;;2.60;99.50;;;;;;5035367;28;20029;-89
2021/03/02 02:45:17;;;;;;;20.95;10.07;;;2.60;97.60;;;;;;5018544;28;20028;-88
2021/03/02 02:47:46;;;;;;;18.38;9.68;;;2.80;99.50;;;;;;5017812;28;20026;-88
2021/03/02 02:50:14;;;;;;;18.25;9.55;;;2.70;97.80;;;;;;5018348;28;20026;-89
2021/03/02 02:52:40;;;;;;;19.48;10.60;;;2.70;99.20;;;;;;5018466;28;20029;-88
2021/03/02 02:55:07;;;;;;;20.15;10.02;;;2.80;96.20;;;;;;5018377;28;20032;-88
2021/03/02 02:57:41;;;;;;;22.63;10.30;;;2.70;97.00;;;;;;5017790;28;20455;-89
2021/03/02 03:00:08;;;;;;;15.70;9.85;;;2.80;98.00;;;;;;5018287;28;20021;-88
2021/03/02 03:02:36;;;;;;;22.63;10.00;;;2.60;96.00;;;;;;5034805;28;20418;-89
2021/03/02 03:05:08;;;;;;;17.60;10.20;;;2.60;97.30;;;;;;5018386;28;20064;-90
2021/03/02 03:07:41;;;;;;;17.02;9.45;;;2.50;94.60;;;;;;5034249;28;20026;-88
2021/03/02 03:10:10;;;;;;;19.83;10.25;;;2.30;95.70;;;;;;5035024;28;20395;-89
2021/03/02 03:12:42;;;;;;;16.73;9.95;;;2.40;97.20;;;;;;5035721;28;20048;-89
2021/03/02 03:15:09;;;;;;;21.92;10.00;;;2.40;96.00;;;;;;5034536;28;20367;-89
2021/03/02 03:17:51;;;;;;;21.02;10.15;;;2.10;94.20;;;;;;5017434;28;20116;-88
2021/03/02 03:20:17;;;;;;;15.00;9.27;;;1.80;95.10;;;;;;5018257;28;20026;-89
2021/03/02 03:22:44;;;;;;;21.30;9.50;;;1.70;96.80;;;;;;5018665;28;20124;-89
2021/03/02 03:25:12;;;;;;;24.80;9.93;;;1.60;97.20;;;;;;5018461;28;20485;-88
2021/03/02 03:27:43;;;;;;;17.63;9.60;;;1.70;98.60;;;;;;5018127;28;20037;-88
2021/03/02 03:30:11;;;;;;;17.05;10.15;;;1.90;99.70;;;;;;5033161;28;20049;-89
2021/03/02 03:32:38;;;;;;;15.98;9.07;;;1.80;94.90;;;;;;5057539;28;20036;-89
2021/03/02 03:35:05;;;;;;;15.40;9.20;;;1.50;95.80;;;;;;5037494;28;20021;-89
2021/03/02 03:37:31;;;;;;;15.95;8.70;;;1.60;99.90;;;;;;5053257;28;20018;-88
2021/03/02 03:39:56;;;;;;;13.88;8.38;;;1.80;99.90;;;;;;5036346;28;20151;-89
2021/03/02 03:42:22;;;;;;;16.25;9.13;;;1.80;96.20;;;;;;5042490;28;20080;-89
2021/03/02 03:44:49;;;;;;;13.73;7.53;;;2.00;98.50;;;;;;5018104;28;20529;-88
2021/03/02 03:47:15;;;;;;;14.07;8.07;;;2.00;96.10;;;;;;5034015;28;20386;-89
2021/03/02 03:49:41;;;;;;;12.65;8.27;;;2.00;96.80;;;;;;5033843;28;20027;-89
2021/03/02 03:52:09;;;;;;;12.23;7.25;;;2.00;96.00;;;;;;5016233;28;20034;-89
2021/03/02 03:54:37;;;;;;;13.05;6.15;;;2.10;96.70;;;;;;5017206;28;20021;-89
2021/03/02 03:57:03;;;;;;;11.07;6.90;;;2.00;95.60;;;;;;5016852;28;20060;-89
2021/03/02 03:59:29;;;;;;;10.38;6.38;;;1.80;97.20;;;;;;5033267;28;20449;-88
2021/03/02 04:01:56;;;;;;;9.90;5.97;;;1.90;98.70;;;;;;5016945;28;20061;-88
2021/03/02 04:04:24;;;;;;;11.27;7.45;;;1.90;96.10;;;;;;5033465;28;20049;-89
2021/03/02 04:06:50;;;;;;;12.70;7.35;;;1.90;96.50;;;;;;5016565;28;20490;-88
2021/03/02 04:09:17;;;;;;;15.48;7.65;;;1.90;97.20;;;;;;5016687;28;20060;-88
2021/03/02 04:11:43;;;;;;;15.40;7.65;;;1.90;97.90;;;;;;5033193;28;20076;-89
2021/03/02 04:14:09;;;;;;;13.15;7.05;;;2.00;96.70;;;;;;5016757;28;20057;-89
2021/03/02 04:16:38;;;;;;;18.27;8.68;;;2.00;96.00;;;;;;5016856;28;20021;-89
2021/03/02 04:19:05;;;;;;;17.42;8.60;;;2.00;95.60;;;;;;5032948;28;20397;-88
2021/03/02 04:21:31;;;;;;;21.60;7.80;;;2.00;95.60;;;;;;5033336;28;20025;-89
2021/03/02 04:23:58;;;;;;;10.02;6.90;;;2.10;94.30;;;;;;5034348;28;20036;-88
2021/03/02 04:26:24;;;;;;;18.67;8.77;;;1.80;93.30;;;;;;5033916;28;20083;-88
2021/03/02 04:28:49;;;;;;;17.05;8.90;;;1.60;95.60;;;;;;5015578;28;20021;-88
2021/03/02 04:31:15;;;;;;;15.90;8.45;;;1.60;96.70;;;;;;5016296;28;20363;-88
2021/03/02 04:33:41;;;;;;;12.10;7.35;;;1.60;98.20;;;;;;5033047;28;20034;-87
2021/03/02 04:36:07;;;;;;;14.95;7.65;;;1.40;97.50;;;;;;5016073;28;20615;-88
2021/03/02 04:38:33;;;;;;;17.48;7.70;;;1.20;96.70;;;;;;5016188;28;20482;-89
2021/03/02 04:40:58;;;;;;;12.13;6.78;;;1.00;96.10;;;;;;5016426;28;20028;-88
2021/03/02 04:43:24;;;;;;;17.92;7.57;;;0.90;96.00;;;;;;5016382;28;20025;-89
2021/03/02 04:45:51;;;;;;;15.82;7.18;;;0.80;98.00;;;;;;5016161;28;20108;-88
2021/03/02 04:48:17;;;;;;;19.95;7.35;;;0.80;98.40;;;;;;5032549;28;20079;-88
2021/03/02 04:50:43;;;;;;;13.65;6.55;;;0.70;99.20;;;;;;5032592;28;20017;-89
2021/03/02 04:53:08;;;;;;;29.52;8.65;;;0.60;98.20;;;;;;5033820;28;20037;-88
2021/03/02 04:55:34;;;;;;;19.50;7.03;;;0.90;98.40;;;;;;5032378;28;20428;-88
2021/03/02 04:58:00;;;;;;;12.00;6.05;;;1.10;99.20;;;;;;5033594;28;20096;-88
2021/03/02 05:00:25;;;;;;;13.18;6.75;;;1.00;96.60;;;;;;5015981;28;20072;-89
2021/03/02 05:02:51;;;;;;;15.02;9.70;;;0.80;96.80;;;;;;5032296;28;20525;-89
2021/03/02 05:05:17;;;;;;;25.58;8.07;;;0.80;98.00;;;;;;5015938;28;20025;-89
2021/03/02 05:07:43;;;;;;;13.27;6.60;;;0.80;98.20;;;;;;5015192;28;20045;-89
2021/03/02 05:10:09;;;;;;;10.35;6.57;;;0.90;99.50;;;;;;5016121;28;20072;-89
2021/03/02 05:12:34;;;;;;;12.10;6.82;;;0.80;99.90;;;;;;5015641;28;20397;-89
2021/03/02 05:15:00;;;;;;;12.18;6.20;;;0.90;99.90;;;;;;5032489;28;20116;-88
2021/03/02 05:17:26;;;;;;;13.10;6.22;;;0.80;99.90;;;;;;5015234;28;20044;-89
2021/03/02 05:19:52;;;;;;;21.30;7.10;;;0.90;99.90;;;;;;5015617;28;20025;-88
2021/03/02 05:22:17;;;;;;;10.48;5.50;;;1.10;99.90;;;;;;5015691;28;20022;-88
2021/03/02 05:24:43;;;;;;;12.43;6.38;;;1.30;99.90;;;;;;5015587;28;20025;-88
2021/03/02 05:27:09;;;;;;;16.80;7.43;;;1.40;99.90;;;;;;5015515;28;20025;-88
2021/03/02 05:29:34;;;;;;;13.93;6.18;;;1.30;96.40;;;;;;5014571;28;20029;-88
2021/03/02 05:32:00;;;;;;;9.73;5.53;;;1.20;97.60;;;;;;5032169;28;20029;-89
2021/03/02 05:34:26;;;;;;;12.48;5.13;;;1.30;97.00;;;;;;5015816;28;20482;-88
2021/03/02 05:36:51;;;;;;;9.07;5.22;;;1.20;96.10;;;;;;5031806;28;20048;-89
2021/03/02 05:39:17;;;;;;;11.98;4.90;;;1.20;97.10;;;;;;5015131;28;20030;-89
2021/03/02 05:41:43;;;;;;;16.40;5.95;;;1.00;96.20;;;;;;5015227;28;20038;-89
2021/03/02 05:44:11;;;;;;;15.50;5.53;;;1.20;96.10;;;;;;5015542;28;20478;-88
2021/03/02 05:46:37;;;;;;;15.60;6.05;;;1.10;97.30;;;;;;5031513;28;20056;-89
2021/03/02 05:49:04;;;;;;;11.05;5.25;;;1.20;98.20;;;;;;5031427;28;20076;-89
2021/03/02 05:51:30;;;;;;;18.95;6.07;;;1.20;97.20;;;;;;5015067;28;20481;-89
2021/03/02 05:53:57;;;;;;;9.23;5.10;;;1.30;97.70;;;;;;5015230;28;20045;-89
2021/03/02 05:56:23;;;;;;;10.23;4.80;;;1.30;97.60;;;;;;5014730;28;20026;-88
2021/03/02 05:58:51;;;;;;;12.65;6.72;;;1.30;98.40;;;;;;5014985;28;20043;-88
2021/03/02 06:01:17;;;;;;;8.75;5.45;;;1.30;99.30;;;;;;5021756;28;20025;-88
2021/03/02 06:03:43;;;;;;;12.95;5.80;;;1.40;99.00;;;;;;5042817;28;20476;-88
2021/03/02 06:06:08;;;;;;;10.15;5.00;;;1.40;98.30;;;;;;5042620;28;20024;-87
2021/03/02 06:08:34;;;;;;;13.80;4.72;;;1.40;98.40;;;;;;5043545;28;20120;-88
2021/03/02 06:11:30;;;;;;;12.70;4.97;;;1.50;98.50;;;;;;5043197;28;20111;-89
2021/03/02 06:13:57;;;;;;;14.20;5.40;;;1.60;96.70;;;;;;5052291;28;20512;-88
2021/03/02 06:16:23;;;;;;;16.65;5.68;;;1.60;95.40;;;;;;5043653;28;20032;-88
2021/03/02 06:18:53;;;;;;;19.02;5.07;;;1.50;95.00;;;;;;5036606;28;20029;-89
2021/03/02 06:21:20;;;;;;;18.25;5.68;;;1.50;95.20;;;;;;5061682;28;20055;-88
2021/03/02 06:23:55;;;;;;;14.82;5.60;;;1.50;95.20;;;;;;5043517;28;20052;-89
2021/03/02 06:26:26;;;;;;;9.13;5.35;;;1.50;94.40;;;;;;5042875;28;20047;-89
2021/03/02 06:28:57;;;;;;;8.38;4.60;;;1.50;94.80;;;;;;5045592;28;20546;-88
2021/03/02 06:31:42;;;;;;;8.93;4.67;;;1.40;94.80;;;;;;5055491;28;20588;-88
2021/03/02 06:34:15;;;;;;;10.25;5.63;;;1.50;95.40;;;;;;5031862;28;20031;-88
2021/03/02 06:37:05;;;;;;;18.90;5.72;;;1.70;97.10;;;;;;5055108;28;20539;-88
2021/03/02 06:39:39;;;;;;;15.65;6.85;;;1.90;95.80;;;;;;5048393;28;20036;-88
2021/03/02 06:42:14;;;;;;;15.07;6.57;;;2.10;95.50;;;;;;5043069;28;20035;-88
2021/03/02 06:44:42;;;;;;;13.93;8.23;;;2.30;95.60;;;;;;5044600;28;20373;-87
2021/03/02 06:47:08;;;;;;;16.08;6.70;;;2.30;95.40;;;;;;5048154;28;20060;-88
2021/03/02 06:49:38;;;;;;;10.75;6.85;;;2.30;95.20;;;;;;5041569;28;20025;-88
2021/03/02 06:52:20;;;;;;;11.02;6.28;;;2.60;95.80;;;;;;5038730;28;20388;-88
2021/03/02 06:54:49;;;;;;;10.13;5.93;;;2.70;93.80;;;;;;5036468;28;20155;-87
2021/03/02 06:57:25;;;;;;;16.05;5.03;;;3.00;93.40;;;;;;5048666;28;20083;-88
2021/03/02 07:00:02;;;;;;;8.07;4.80;;;3.10;93.10;;;;;;5044482;28;20028;-88
2021/03/02 07:02:39;;;;;;;8.70;4.43;;;3.10;92.90;;;;;;5047503;28;20029;-88
2021/03/02 07:05:20;;;;;;;10.23;4.55;;;3.20;93.30;;;;;;5044068;28;20388;-88
2021/03/02 07:07:54;;;;;;;6.47;4.50;;;3.40;92.60;;;;;;5051053;28;20489;-87
2021/03/02 07:10:21;;;;;;;14.75;5.15;;;3.60;92.00;;;;;;5058272;28;20113;-88
2021/03/02 07:12:47;;;;;;;17.30;4.95;;;3.60;91.60;;;;;;5063670;28;20036;-88
2021/03/02 07:15:17;;;;;;;10.93;4.93;;;3.60;92.20;;;;;;5045146;28;20469;-88
2021/03/02 07:17:45;;;;;;;8.65;5.53;;;3.60;92.00;;;;;;5058771;28;20025;-88
2021/03/02 07:20:15;;;;;;;11.38;5.10;;;3.70;92.30;;;;;;5062799;28;20016;-87
2021/03/02 07:22:46;;;;;;;12.05;4.88;;;3.90;91.70;;;;;;5043036;28;20060;-88
2021/03/02 07:25:17;;;;;;;16.77;5.50;;;3.80;92.50;;;;;;5043107;28;20020;-88
2021/03/02 07:27:43;;;;;;;53.63;8.35;;;3.60;91.70;;;;;;5059041;28;20465;-86
2021/03/02 07:30:11;;;;;;;11.18;4.78;;;3.40;92.50;;;;;;5045116;28;20040;-86
2021/03/02 07:32:41;;;;;;;10.93;5.30;;;3.50;93.30;;;;;;5045835;28;20490;-87
2021/03/02 07:35:14;;;;;;;9.45;4.55;;;3.50;92.10;;;;;;5053153;28;20040;-87
2021/03/02 07:37:40;;;;;;;18.52;9.60;;;3.50;91.90;;;;;;5054013;28;20074;-87
2021/03/02 07:40:09;;;;;;;13.20;7.40;;;3.50;92.10;;;;;;5055523;28;20021;-86
2021/03/02 07:42:35;;;;;;;12.60;5.80;;;3.50;92.80;;;;;;5041331;28;20028;-87
2021/03/02 07:45:06;;;;;;;24.27;7.00;;;3.80;92.20;;;;;;5053682;28;20120;-88
2021/03/02 07:47:49;;;;;;;15.18;5.95;;;3.80;91.50;;;;;;5065577;28;20035;-85
2021/03/02 07:50:27;;;;;;;14.93;5.35;;;4.00;92.10;;;;;;5040829;28;20039;-84
2021/03/02 07:53:14;;;;;;;15.07;5.95;;;4.30;91.70;;;;;;5059597;28;20464;-84
2021/03/02 07:55:40;;;;;;;10.02;4.80;;;4.40;91.10;;;;;;5065118;28;20483;-85
2021/03/02 07:58:19;;;;;;;9.65;5.95;;;4.60;90.30;;;;;;5043434;28;20052;-85
2021/03/02 08:00:49;;;;;;;25.30;7.03;;;4.80;89.80;;;;;;5062824;28;20436;-86
2021/03/02 08:03:24;;;;;;;20.58;7.40;;;4.80;89.00;;;;;;5051602;28;20119;-87
2021/03/02 08:05:55;;;;;;;20.00;5.70;;;4.70;88.90;;;;;;5046457;28;20024;-87
2021/03/02 08:08:23;;;;;;;26.88;8.75;;;4.70;88.40;;;;;;5039075;28;20405;-86
2021/03/02 08:10:54;;;;;;;35.10;6.45;;;4.80;88.40;;;;;;5058055;28;20432;-86
2021/03/02 08:13:40;;;;;;;47.10;9.35;;;4.90;87.90;;;;;;5053859;28;20041;-87
2021/03/02 08:16:09;;;;;;;38.63;7.47;;;5.10;87.90;;;;;;5048383;28;20045;-88
2021/03/02 08:18:40;;;;;;;52.83;9.52;;;5.20;87.10;;;;;;5043807;28;20025;-87
2021/03/02 08:21:15;;;;;;;40.63;8.23;;;5.20;86.70;;;;;;5044100;28;20025;-87
2021/03/02 08:23:59;;;;;;;22.85;7.40;;;5.30;86.00;;;;;;5052748;28;20025;-88
2021/03/02 08:26:26;;;;;;;28.67;6.85;;;5.40;84.40;;;;;;5050145;28;20025;-88
2021/03/02 08:29:10;;;;;;;19.63;6.38;;;5.50;83.80;;;;;;5041322;28;20647;-87
2021/03/02 08:31:38;;;;;;;39.20;6.70;;;5.70;83.50;;;;;;5046383;28;20021;-88
2021/03/02 08:34:08;;;;;;;26.83;7.47;;;5.70;83.20;;;;;;5062817;28;20029;-88
2021/03/02 08:36:35;;;;;;;25.30;7.43;;;5.90;82.70;;;;;;5047871;28;20074;-87
2021/03/02 08:39:17;;;;;;;27.02;7.00;;;6.00;81.10;;;;;;5052433;28;20033;-88
2021/03/02 08:41:45;;;;;;;24.05;7.10;;;6.20;80.70;;;;;;5038433;28;20028;-87
2021/03/02 08:44:21;;;;;;;12.95;5.65;;;6.40;79.20;;;;;;5049326;28;20021;-87
2021/03/02 08:46:52;;;;;;;13.10;5.28;;;6.50;77.50;;;;;;5044180;28;20027;-88
2021/03/02 08:49:21;;;;;;;25.55;6.07;;;6.60;76.80;;;;;;5044775;28;20029;-88
2021/03/02 08:51:47;;;;;;;18.70;5.53;;;6.70;75.80;;;;;;5041059;28;20029;-88
2021/03/02 08:54:14;;;;;;;11.50;5.15;;;6.80;75.10;;;;;;5049431;28;20027;-89
2021/03/02 08:56:40;;;;;;;6.13;3.78;;;7.00;74.20;;;;;;5043763;28;20020;-88
2021/03/02 08:59:18;;;;;;;10.07;4.13;;;7.10;74.70;;;;;;5054196;28;20071;-87
2021/03/02 09:01:44;;;;;;;13.48;5.05;;;7.20;74.20;;;;;;5038963;28;20025;-88
2021/03/02 09:04:25;;;;;;;6.28;3.63;;;7.40;74.50;;;;;;5048120;28;20032;-88
2021/03/02 09:06:56;;;;;;;13.98;3.28;;;7.50;74.10;;;;;;5036611;28;20033;-88
2021/03/02 09:09:34;;;;;;;8.55;2.55;;;7.60;71.00;;;;;;5038206;28;20028;-88
2021/03/02 09:12:02;;;;;;;19.95;4.40;;;7.70;67.60;;;;;;5046388;28;20112;-88
2021/03/02 09:14:33;;;;;;;7.35;2.50;;;7.90;67.20;;;;;;5040946;28;20033;-88
2021/03/02 09:17:20;;;;;;;14.18;3.33;;;8.00;65.90;;;;;;5051686;28;20029;-87
2021/03/02 09:19:49;;;;;;;5.43;2.35;;;8.20;64.40;;;;;;5066026;28;20020;-87
2021/03/02 09:22:27;;;;;;;11.70;3.08;;;8.40;63.60;;;;;;5034426;28;20032;-87
2021/03/02 09:25:28;;;;;;;7.43;2.42;;;8.60;63.10;;;;;;5044361;28;20389;-87
2021/03/02 09:28:12;;;;;;;5.75;2.75;;;8.70;62.00;;;;;;5039524;28;20179;-88
2021/03/02 09:30:42;;;;;;;7.43;2.70;;;8.90;60.80;;;;;;5053813;28;20405;-87
2021/03/02 09:33:17;;;;;;;11.18;2.42;;;9.20;60.80;;;;;;5044759;28;20027;-87
2021/03/02 09:35:57;;;;;;;17.52;2.42;;;9.70;60.30;;;;;;5062710;28;20021;-87
2021/03/02 09:38:50;;;;;;;5.10;2.55;;;10.30;58.50;;;;;;5039713;28;20028;-87
2021/03/02 09:41:48;;;;;;;7.82;2.20;;;10.70;58.00;;;;;;5053771;28;20020;-88
2021/03/02 09:44:23;;;;;;;3.70;2.40;;;11.30;56.50;;;;;;5033713;28;20026;-88
2021/03/02 09:46:57;;;;;;;4.68;2.33;;;11.80;55.80;;;;;;5039357;28;20031;-87
2021/03/02 09:49:43;;;;;;;8.05;3.25;;;11.90;54.60;;;;;;5064809;28;20116;-88
2021/03/02 09:52:35;;;;;;;10.30;3.42;;;12.20;55.80;;;;;;5050902;28;20024;-87
2021/03/02 09:55:21;;;;;;;8.77;3.00;;;12.70;55.20;;;;;;5037231;28;20021;-87
2021/03/02 09:58:14;;;;;;;11.18;3.00;;;13.10;54.50;;;;;;5035785;28;20116;-86
2021/03/02 10:00:40;;;;;;;12.23;2.65;;;13.70;54.20;;;;;;5036076;28;20025;-86
2021/03/02 10:03:21;;;;;;;7.82;2.65;;;13.90;52.80;;;;;;5054307;28;20033;-88
2021/03/02 10:05:58;;;;;;;9.25;3.10;;;14.00;53.00;;;;;;5049276;28;20036;-88
2021/03/02 10:08:26;;;;;;;6.78;3.20;;;14.70;52.50;;;;;;5048475;28;20123;-89
2021/03/02 10:11:05;;;;;;;12.15;3.25;;;14.90;52.50;;;;;;5049974;28;20024;-88
2021/03/02 10:13:34;;;;;;;6.38;3.33;;;15.30;51.00;;;;;;5049421;28;20049;-87
2021/03/02 10:16:21;;;;;;;10.55;4.28;;;15.50;50.20;;;;;;5053721;28;21161;-88
2021/03/02 10:18:56;;;;;;;8.88;4.20;;;16.00;49.40;;;;;;5040673;28;20116;-88
2021/03/02 10:21:26;;;;;;;8.45;4.03;;;15.90;49.30;;;;;;5049769;28;20071;-88
2021/03/02 10:23:55;;;;;;;9.35;3.65;;;16.00;48.60;;;;;;5043131;28;20059;-88
2021/03/02 10:26:27;;;;;;;15.88;4.07;;;16.30;49.20;;;;;;5049383;28;20115;-88
2021/03/02 10:28:53;;;;;;;14.85;3.95;;;16.80;48.00;;;;;;5044250;28;20542;-89
2021/03/02 10:31:19;;;;;;;14.43;3.33;;;17.30;47.00;;;;;;5035693;28;20057;-88
2021/03/02 10:33:48;;;;;;;4.30;3.40;;;17.40;45.60;;;;;;5049234;28;20025;-88
2021/03/02 10:36:25;;;;;;;7.85;3.63;;;17.80;45.10;;;;;;5047020;28;20055;-89
2021/03/02 10:38:52;;;;;;;7.35;3.65;;;18.00;45.00;;;;;;5053968;28;20055;-89
2021/03/02 10:41:23;;;;;;;7.32;3.65;;;18.20;44.80;;;;;;5044226;28;20023;-89
2021/03/02 10:43:50;;;;;;;5.60;3.67;;;18.10;43.90;;;;;;5059919;28;20477;-89
2021/03/02 10:46:20;;;;;;;13.65;4.63;;;18.40;43.30;;;;;;5039127;28;20052;-89
2021/03/02 10:48:52;;;;;;;10.85;4.25;;;18.70;43.40;;;;;;5053081;28;20028;-87
2021/03/02 10:51:23;;;;;;;6.90;3.63;;;18.60;42.30;;;;;;5044635;28;20024;-89
2021/03/02 10:53:49;;;;;;;19.95;5.43;;;19.00;42.30;;;;;;5045646;28;20029;-89
2021/03/02 10:56:19;;;;;;;6.38;3.92;;;19.30;42.20;;;;;;5044375;28;20104;-89
2021/03/02 10:58:48;;;;;;;10.55;4.00;;;19.70;41.40;;;;;;5041128;28;20549;-89
2021/03/02 11:01:19;;;;;;;26.73;4.68;;;19.90;40.80;;;;;;5040309;28;20123;-89
2021/03/02 11:03:57;;;;;;;6.57;3.70;;;20.20;39.90;;;;;;5060239;28;20025;-89
2021/03/02 11:06:32;;;;;;;8.35;4.20;;;20.10;37.70;;;;;;5049315;28;20401;-89
2021/03/02 11:09:37;;;;;;;11.20;3.80;;;20.40;36.80;;;;;;5068802;28;20015;-89
2021/03/02 11:12:29;;;;;;;8.63;4.18;;;20.40;35.50;;;;;;5067136;28;20029;-89
2021/03/02 11:14:55;;;;;;;9.80;4.65;;;20.50;35.40;;;;;;5059922;28;20025;-88
2021/03/02 11:17:27;;;;;;;13.30;4.38;;;20.90;34.40;;;;;;5070076;28;20024;-89
2021/03/02 11:22:21;;;;;;;7.43;4.20;;;21.60;32.00;;;;;;5039195;28;20060;-74
2021/03/02 11:24:47;;;;;;;6.35;3.85;;;21.60;32.40;;;;;;5050086;28;20021;-74
2021/03/02 11:27:13;;;;;;;4.93;3.50;;;21.70;32.70;;;;;;5017332;28;20028;-73
2021/03/02 11:29:39;;;;;;;4.40;3.90;;;21.70;32.10;;;;;;5032585;28;20498;-74
2021/03/02 11:32:06;;;;;;;12.50;4.88;;;21.70;32.20;;;;;;5051130;28;20029;-74
2021/03/02 11:34:33;;;;;;;8.95;4.07;;;21.70;32.30;;;;;;5033382;28;20032;-74
2021/03/02 11:36:59;;;;;;;7.15;4.18;;;22.00;32.20;;;;;;5052986;28;20060;-74
2021/03/02 11:39:25;;;;;;;7.32;3.95;;;21.90;32.10;;;;;;5039997;28;20057;-74
2021/03/02 11:41:50;;;;;;;14.95;4.78;;;22.30;31.20;;;;;;5040029;28;20087;-74
2021/03/02 11:44:16;;;;;;;9.70;4.20;;;22.00;31.60;;;;;;5049251;28;20017;-74
2021/03/02 11:46:42;;;;;;;8.73;3.53;;;22.10;31.60;;;;;;5045429;28;20104;-74
2021/03/02 11:49:08;;;;;;;11.10;3.65;;;22.20;31.30;;;;;;5016606;28;20030;-74
2021/03/02 11:51:33;;;;;;;11.98;4.80;;;22.00;32.60;;;;;;5034070;28;20032;-73
2021/03/02 11:53:59;;;;;;;9.10;3.42;;;22.10;32.10;;;;;;5042486;28;20068;-74
2021/03/02 11:56:25;;;;;;;16.60;4.32;;;21.90;32.30;;;;;;4994549;28;20025;-74
2021/03/02 11:58:50;;;;;;;29.67;5.07;;;22.20;32.30;;;;;;5036800;28;20033;-74
2021/03/02 12:01:16;;;;;;;7.05;3.90;;;22.20;33.10;;;;;;5033729;28;20491;-74
2021/03/02 12:03:42;;;;;;;6.88;3.17;;;22.40;32.20;;;;;;5048282;28;20029;-74
2021/03/02 12:06:08;;;;;;;5.50;3.65;;;22.20;32.70;;;;;;5042372;28;20025;-74
2021/03/02 12:08:34;;;;;;;5.88;3.63;;;22.70;32.20;;;;;;5047725;28;20049;-74
2021/03/02 12:11:00;;;;;;;6.93;4.35;;;23.30;31.20;;;;;;5032634;28;20036;-74
2021/03/02 12:13:26;;;;;;;10.65;4.35;;;22.90;31.70;;;;;;5033246;28;20033;-74
2021/03/02 12:15:52;;;;;;;10.93;4.53;;;23.00;31.40;;;;;;5052028;28;20021;-73
2021/03/02 12:18:18;;;;;;;10.98;4.72;;;23.00;31.40;;;;;;5048928;28;20025;-74
2021/03/02 12:20:44;;;;;;;6.28;3.85;;;23.40;31.00;;;;;;5032431;28;20040;-73
2021/03/02 12:23:10;;;;;;;17.27;4.35;;;23.30;30.70;;;;;;5033511;28;20392;-74
2021/03/02 12:25:35;;;;;;;12.13;4.35;;;23.50;29.90;;;;;;5048698;28;20060;-74
2021/03/02 12:28:02;;;;;;;14.40;4.70;;;23.60;29.70;;;;;;5046660;28;20029;-74
2021/03/02 12:30:28;;;;;;;25.88;5.90;;;23.40;29.80;;;;;;5048730;28;20464;-74
2021/03/02 12:32:54;;;;;;;8.45;4.75;;;22.80;30.90;;;;;;5030009;28;20109;-74
2021/03/02 12:35:19;;;;;;;7.20;4.22;;;23.00;29.70;;;;;;5048059;28;20025;-74
2021/03/02 12:37:45;;;;;;;6.57;4.38;;;22.70;31.20;;;;;;5052437;28;20076;-74
2021/03/02 12:40:11;;;;;;;9.75;4.35;;;23.30;29.70;;;;;;5033409;28;20392;-73
2021/03/02 12:42:37;;;;;;;7.30;4.50;;;23.70;29.40;;;;;;5040432;28;20056;-74
2021/03/02 12:45:04;;;;;;;7.18;4.30;;;23.60;29.00;;;;;;5035570;28;20029;-74
2021/03/02 12:47:30;;;;;;;7.25;4.50;;;23.70;29.10;;;;;;5027382;28;20036;-74
2021/03/02 12:49:56;;;;;;;7.00;4.65;;;23.60;28.90;;;;;;5033833;28;20112;-73
2021/03/02 12:52:22;;;;;;;9.10;4.97;;;23.80;29.20;;;;;;5043133;28;20029;-73
2021/03/02 12:54:48;;;;;;;10.93;4.82;;;24.00;29.30;;;;;;5048535;28;20044;-74
2021/03/02 12:57:13;;;;;;;7.47;4.97;;;24.40;29.70;;;;;;5052608;28;20029;-74
2021/03/02 12:59:39;;;;;;;22.80;5.97;;;23.90;29.30;;;;;;5039917;28;20026;-74
2021/03/02 13:02:05;;;;;;;5.30;3.70;;;23.20;29.30;;;;;;5026395;28;20033;-73